createdAt,value
2022-08-28T00:02:14.355Z,8.40
2022-08-28T00:05:11.505Z,8.40
2022-08-28T00:08:12.445Z,9.30
2022-08-28T00:11:03.972Z,9.20
2022-08-28T00:13:52.935Z,8.20
2022-08-28T00:16:33.947Z,9.00
2022-08-28T00:19:18.875Z,9.00
2022-08-28T00:21:48.377Z,8.30
2022-08-28T00:24:38.866Z,8.90
2022-08-28T00:27:41.144Z,8.60
2022-08-28T00:30:21.714Z,9.00
2022-08-28T00:32:58.888Z,9.30
2022-08-28T00:35:36.793Z,9.10
2022-08-28T00:38:29.438Z,8.90
2022-08-28T00:41:04.986Z,8.90
2022-08-28T00:43:44.220Z,8.70
2022-08-28T00:46:31.375Z,9.00
2022-08-28T00:49:10.945Z,9.00
2022-08-28T00:52:12.418Z,9.20
2022-08-28T00:54:59.511Z,9.60
2022-08-28T00:57:45.261Z,8.90
2022-08-28T01:00:43.208Z,8.80
2022-08-28T01:03:37.792Z,8.40
2022-08-28T01:06:20.886Z,9.10
2022-08-28T01:09:05.682Z,9.20
2022-08-28T01:11:52.184Z,10.10
2022-08-28T01:14:34.401Z,11.00
2022-08-28T01:17:06.304Z,11.30
2022-08-28T01:19:48.758Z,11.00
2022-08-28T01:22:52.371Z,10.90
2022-08-28T01:25:28.829Z,11.10
2022-08-28T01:28:11.035Z,11.40
2022-08-28T01:30:48.110Z,11.90
2022-08-28T01:33:42.802Z,11.00
2022-08-28T01:36:27.100Z,11.80
2022-08-28T01:39:12.164Z,10.60
2022-08-28T01:42:01.266Z,10.70
2022-08-28T01:44:38.528Z,10.70
2022-08-28T01:47:14.905Z,10.40
2022-08-28T01:49:51.014Z,10.60
2022-08-28T01:52:43.475Z,10.80
2022-08-28T01:55:23.709Z,10.70
2022-08-28T01:58:20.455Z,11.10
2022-08-28T02:00:51.556Z,10.50
2022-08-28T02:03:25.746Z,11.80
2022-08-28T02:06:23.474Z,11.00
2022-08-28T02:09:01.376Z,11.30
2022-08-28T02:11:58.018Z,11.80
2022-08-28T02:14:45.959Z,12.00
2022-08-28T02:17:19.268Z,11.70
2022-08-28T02:20:27.154Z,12.10
2022-08-28T02:23:12.570Z,11.60
2022-08-28T02:26:12.442Z,12.60
2022-08-28T02:28:48.926Z,11.10
2022-08-28T02:31:19.311Z,10.50
2022-08-28T02:33:53.132Z,10.10
2022-08-28T02:36:35.876Z,12.00
2022-08-28T02:39:33.364Z,10.60
2022-08-28T02:42:17.291Z,11.10
2022-08-28T02:45:03.864Z,11.40
2022-08-28T02:47:40.917Z,11.60
2022-08-28T02:50:12.842Z,11.20
2022-08-28T02:53:01.663Z,10.90
2022-08-28T02:55:34.172Z,10.70
2022-08-28T02:58:26.929Z,10.40
2022-08-28T03:01:18.050Z,10.60
2022-08-28T03:03:48.941Z,11.20
2022-08-28T03:06:23.463Z,10.40
2022-08-28T03:09:12.935Z,10.10
2022-08-28T03:11:47.702Z,10.30
2022-08-28T03:14:29.872Z,9.40
2022-08-28T03:17:11.043Z,10.00
2022-08-28T03:19:49.453Z,10.70
2022-08-28T03:22:52.756Z,10.70
2022-08-28T03:25:33.520Z,10.20
2022-08-28T03:30:51.320Z,9.60
2022-08-28T03:33:31.951Z,10.30
2022-08-28T03:36:09.918Z,10.20
2022-08-28T03:38:48.602Z,9.90
2022-08-28T03:41:36.767Z,10.80
2022-08-28T03:44:14.087Z,10.00
2022-08-28T03:46:48.619Z,9.90
2022-08-28T03:49:31.639Z,9.30
2022-08-28T03:52:05.044Z,9.70
2022-08-28T03:55:30.035Z,9.60
2022-08-28T03:58:14.591Z,10.60
2022-08-28T04:00:56.456Z,9.50
2022-08-28T04:03:44.998Z,10.80
2022-08-28T04:06:34.101Z,9.60
2022-08-28T04:09:16.305Z,10.10
2022-08-28T04:11:57.176Z,10.10
2022-08-28T04:14:55.809Z,10.70
2022-08-28T04:17:35.708Z,9.70
2022-08-28T04:20:15.873Z,10.10
2022-08-28T04:22:55.219Z,9.80
2022-08-28T04:25:40.469Z,9.80
2022-08-28T04:28:17.122Z,10.00
2022-08-28T04:30:57.664Z,10.00
2022-08-28T04:33:38.071Z,10.30
2022-08-28T04:36:19.144Z,9.50
2022-08-28T04:38:51.516Z,9.80
2022-08-28T04:41:48.153Z,10.80
2022-08-28T04:44:36.766Z,10.10
2022-08-28T04:47:06.835Z,10.40
2022-08-28T04:50:04.796Z,10.30
2022-08-28T04:52:39.757Z,9.60
2022-08-28T04:55:45.078Z,9.60
2022-08-28T04:58:38.489Z,9.80
2022-08-28T05:01:15.853Z,10.20
2022-08-28T05:04:06.472Z,10.30
2022-08-28T05:06:53.851Z,10.50
2022-08-28T05:09:41.611Z,10.30
2022-08-28T05:12:21.121Z,10.30
2022-08-28T05:14:55.906Z,10.10
2022-08-28T05:17:45.987Z,10.70
2022-08-28T05:20:23.755Z,11.10
2022-08-28T05:23:09.844Z,10.50
2022-08-28T05:26:04.157Z,9.80
2022-08-28T05:29:03.025Z,9.90
2022-08-28T05:32:13.729Z,10.00
2022-08-28T05:34:55.464Z,10.30
2022-08-28T05:37:37.370Z,10.80
2022-08-28T05:40:14.171Z,10.70
2022-08-28T05:43:07.584Z,10.50
2022-08-28T05:45:43.081Z,10.60
2022-08-28T05:48:21.068Z,10.40
2022-08-28T05:51:01.124Z,11.00
2022-08-28T05:53:51.911Z,11.60
2022-08-28T05:56:56.976Z,11.00
2022-08-28T05:59:55.548Z,11.30
2022-08-28T06:02:35.811Z,10.70
2022-08-28T06:05:17.398Z,11.50
2022-08-28T06:07:56.011Z,11.70
2022-08-28T06:10:32.976Z,11.40
2022-08-28T06:13:47.139Z,11.00
2022-08-28T06:16:44.769Z,11.10
2022-08-28T06:19:15.990Z,11.60
2022-08-28T06:21:59.574Z,11.30
2022-08-28T06:24:49.991Z,11.20
2022-08-28T06:27:21.540Z,11.00
2022-08-28T06:30:22.916Z,11.70
2022-08-28T06:33:00.001Z,12.60
2022-08-28T06:35:41.045Z,11.70
2022-08-28T06:38:20.686Z,11.90
2022-08-28T06:40:56.668Z,12.00
2022-08-28T06:43:36.389Z,11.80
2022-08-28T06:46:16.446Z,12.70
2022-08-28T06:48:46.566Z,11.60
2022-08-28T06:51:24.881Z,13.00
2022-08-28T06:54:23.253Z,11.90
2022-08-28T06:57:09.985Z,12.70
2022-08-28T06:59:47.496Z,13.00
2022-08-28T07:02:28.348Z,13.00
2022-08-28T07:05:09.901Z,12.30
2022-08-28T07:07:43.251Z,12.60
2022-08-28T07:10:24.694Z,12.40
2022-08-28T07:13:08.513Z,12.10
2022-08-28T07:15:45.425Z,12.50
2022-08-28T07:18:26.399Z,13.30
2022-08-28T07:21:03.060Z,13.00
2022-08-28T07:23:34.823Z,13.00
2022-08-28T07:26:26.406Z,12.80
2022-08-28T07:29:09.420Z,12.80
2022-08-28T07:31:52.058Z,12.50
2022-08-28T07:34:44.459Z,13.00
2022-08-28T07:37:55.105Z,12.90
2022-08-28T07:40:50.126Z,13.00
2022-08-28T07:43:47.123Z,12.30
2022-08-28T07:46:20.396Z,13.60
2022-08-28T07:49:10.518Z,12.40
2022-08-28T07:51:55.375Z,13.60
2022-08-28T07:54:26.606Z,12.50
2022-08-28T07:57:05.864Z,12.40
2022-08-28T08:00:06.385Z,13.00
2022-08-28T08:02:43.401Z,12.60
2022-08-28T08:05:21.895Z,12.60
2022-08-28T08:08:33.917Z,12.30
2022-08-28T08:11:13.888Z,12.30
2022-08-28T08:14:19.593Z,12.10
2022-08-28T08:17:14.146Z,12.80
2022-08-28T08:19:49.827Z,13.00
2022-08-28T08:22:36.597Z,11.80
2022-08-28T08:25:19.250Z,12.30
2022-08-28T08:28:04.204Z,12.10
2022-08-28T08:30:44.502Z,12.40
2022-08-28T08:33:38.079Z,12.70
2022-08-28T08:36:08.806Z,12.00
2022-08-28T08:38:48.580Z,12.00
2022-08-28T08:41:52.162Z,11.90
2022-08-28T08:44:47.631Z,12.40
2022-08-28T08:47:47.956Z,12.60
2022-08-28T08:50:39.310Z,12.40
2022-08-28T08:53:52.256Z,11.60
2022-08-28T08:57:02.905Z,12.00
2022-08-28T08:59:44.448Z,12.30
2022-08-28T09:02:34.253Z,12.10
2022-08-28T09:06:21.918Z,11.80
2022-08-28T09:09:13.728Z,11.10
2022-08-28T09:12:22.091Z,10.80
2022-08-28T09:15:24.524Z,10.70
2022-08-28T09:17:57.539Z,10.50
2022-08-28T09:20:44.732Z,11.00
2022-08-28T09:23:29.795Z,11.30
2022-08-28T09:26:33.501Z,11.30
2022-08-28T09:30:07.847Z,11.10
2022-08-28T09:33:13.276Z,9.80
2022-08-28T09:35:57.333Z,10.00
2022-08-28T09:38:34.852Z,10.40
2022-08-28T09:42:23.990Z,10.80
2022-08-28T09:45:28.334Z,10.30
2022-08-28T09:48:42.212Z,9.90
2022-08-28T09:51:40.778Z,10.30
2022-08-28T09:54:32.322Z,10.20
2022-08-28T09:57:31.754Z,10.20
2022-08-28T10:00:29.090Z,10.70
2022-08-28T10:03:42.194Z,9.80
2022-08-28T10:06:34.258Z,9.40
2022-08-28T10:09:37.114Z,9.00
2022-08-28T10:12:31.612Z,9.30
2022-08-28T10:15:45.624Z,9.10
2022-08-28T10:19:05.513Z,9.30
2022-08-28T10:22:08.336Z,9.10
2022-08-28T10:25:18.385Z,9.00
2022-08-28T10:28:28.852Z,10.00
2022-08-28T10:31:14.139Z,8.90
2022-08-28T10:34:08.849Z,9.00
2022-08-28T10:37:13.711Z,8.10
2022-08-28T10:40:10.130Z,8.60
2022-08-28T10:43:12.114Z,8.50
2022-08-28T10:46:44.591Z,8.80
2022-08-28T10:49:48.205Z,8.90
2022-08-28T10:52:45.488Z,8.50
2022-08-28T10:55:48.331Z,8.90
2022-08-28T10:58:40.047Z,8.80
2022-08-28T11:02:03.058Z,8.80
2022-08-28T11:05:01.582Z,8.80
2022-08-28T11:08:11.882Z,8.60
2022-08-28T11:12:06.394Z,8.10
2022-08-28T11:16:14.088Z,8.30
2022-08-28T11:20:00.443Z,8.00
2022-08-28T11:23:12.051Z,7.70
2022-08-28T11:30:12.884Z,7.90
2022-08-28T11:36:52.874Z,9.20
2022-08-28T11:40:34.475Z,8.10
2022-08-28T11:43:26.078Z,8.70
2022-08-28T11:46:44.086Z,8.70
2022-08-28T11:49:50.458Z,9.10
2022-08-28T11:52:56.879Z,8.70
2022-08-28T11:56:21.666Z,7.40
2022-08-28T12:00:02.412Z,7.70
2022-08-28T12:02:57.104Z,8.40
2022-08-28T12:09:12.621Z,10.20
2022-08-28T12:12:13.024Z,7.80
2022-08-28T12:18:39.008Z,8.10
2022-08-28T12:21:42.029Z,7.60
2022-08-28T12:24:32.135Z,6.60
2022-08-28T12:27:45.129Z,7.10
2022-08-28T12:31:02.135Z,7.50
2022-08-28T12:33:56.700Z,7.70
2022-08-28T12:36:52.072Z,7.80
2022-08-28T12:40:03.229Z,8.60
2022-08-28T12:42:55.258Z,7.50
2022-08-28T12:45:51.812Z,8.10
2022-08-28T12:48:54.881Z,9.30
2022-08-28T12:52:18.928Z,8.00
2022-08-28T13:02:06.071Z,8.20
2022-08-28T13:11:52.920Z,8.00
2022-08-28T13:14:54.387Z,8.60
2022-08-28T13:18:12.323Z,8.30
2022-08-28T13:21:16.565Z,8.10
2022-08-28T13:24:59.821Z,8.00
2022-08-28T13:28:16.560Z,8.20
2022-08-28T13:31:07.499Z,8.40
2022-08-28T13:34:13.118Z,8.10
2022-08-28T13:37:56.854Z,7.90
2022-08-28T13:41:10.580Z,8.40
2022-08-28T13:44:11.625Z,9.20
2022-08-28T13:47:20.296Z,7.60
2022-08-28T13:50:21.436Z,8.50
2022-08-28T13:53:11.433Z,8.50
2022-08-28T13:56:19.746Z,8.80
2022-08-28T13:59:55.590Z,8.70
2022-08-28T14:06:39.676Z,8.90
2022-08-28T14:09:38.777Z,9.40
2022-08-28T14:12:32.844Z,8.70
2022-08-28T14:15:25.461Z,8.70
2022-08-28T14:18:33.934Z,8.70
2022-08-28T14:21:46.381Z,8.70
2022-08-28T14:25:07.236Z,9.30
2022-08-28T14:28:07.175Z,12.50
2022-08-28T14:31:26.356Z,9.20
2022-08-28T14:34:45.418Z,8.90
2022-08-28T14:37:26.107Z,8.80
2022-08-28T14:40:59.553Z,9.20
2022-08-28T14:47:09.937Z,8.60
2022-08-28T14:50:13.510Z,8.70
2022-08-28T14:53:12.941Z,8.40
2022-08-28T14:56:24.122Z,8.90
2022-08-28T14:59:26.460Z,9.00
2022-08-28T15:02:35.020Z,8.50
2022-08-28T15:06:09.722Z,9.00
2022-08-28T15:09:10.576Z,8.40
2022-08-28T15:12:16.783Z,8.30
2022-08-28T15:15:39.779Z,8.70
2022-08-28T15:18:28.422Z,7.80
2022-08-28T15:21:37.194Z,9.10
2022-08-28T15:24:43.268Z,9.00
2022-08-28T15:31:49.241Z,9.40
2022-08-28T15:34:44.683Z,9.00
2022-08-28T15:37:58.043Z,9.30
2022-08-28T15:41:33.144Z,8.90
2022-08-28T15:44:32.955Z,8.50
2022-08-28T15:48:00.199Z,7.80
2022-08-28T15:54:58.331Z,7.80
2022-08-28T16:01:28.813Z,8.50
2022-08-28T16:04:36.413Z,8.70
2022-08-28T16:07:22.925Z,8.40
2022-08-28T16:10:44.237Z,8.60
2022-08-28T16:14:27.601Z,7.50
2022-08-28T16:18:39.724Z,8.30
2022-08-28T16:21:45.765Z,7.70
2022-08-28T16:25:23.306Z,8.40
2022-08-28T16:28:32.385Z,8.30
2022-08-28T16:31:26.657Z,8.20
2022-08-28T16:34:29.437Z,8.30
2022-08-28T16:37:41.505Z,8.50
2022-08-28T16:40:35.866Z,7.70
2022-08-28T16:43:34.005Z,8.40
2022-08-28T16:46:32.215Z,8.50
2022-08-28T16:49:23.699Z,8.70
2022-08-28T16:52:32.888Z,9.00
2022-08-28T16:55:35.466Z,8.60
2022-08-28T17:01:57.061Z,8.10
2022-08-28T17:04:38.567Z,8.60
2022-08-28T17:07:38.813Z,9.70
2022-08-28T17:10:33.546Z,9.70
2022-08-28T17:13:08.674Z,8.90
2022-08-28T17:15:59.987Z,10.80
2022-08-28T17:18:52.194Z,10.40
2022-08-28T17:21:52.830Z,9.20
2022-08-28T17:24:36.685Z,9.20
2022-08-28T17:28:16.202Z,8.30
2022-08-28T17:31:17.179Z,7.80
2022-08-28T17:33:48.111Z,7.00
2022-08-28T17:36:33.701Z,8.00
2022-08-28T17:39:16.863Z,7.00
2022-08-28T17:42:28.797Z,7.60
2022-08-28T17:45:20.252Z,7.40
2022-08-28T17:48:15.220Z,8.00
2022-08-28T17:51:02.907Z,7.60
2022-08-28T17:53:47.103Z,8.10
2022-08-28T17:56:47.565Z,8.10
2022-08-28T17:59:37.451Z,7.00
2022-08-28T18:02:32.999Z,7.20
2022-08-28T18:05:11.473Z,8.00
2022-08-28T18:07:57.989Z,8.30
2022-08-28T18:10:37.839Z,7.80
2022-08-28T18:13:34.842Z,7.70
2022-08-28T18:16:31.170Z,7.00
2022-08-28T18:19:20.146Z,6.70
2022-08-28T18:22:12.683Z,7.20
2022-08-28T18:24:56.610Z,7.10
2022-08-28T18:28:13.709Z,7.20
2022-08-28T18:31:11.559Z,7.30
2022-08-28T18:34:24.911Z,6.00
2022-08-28T18:37:26.914Z,5.80
2022-08-28T18:40:09.246Z,6.50
2022-08-28T18:42:44.507Z,6.30
2022-08-28T18:45:19.207Z,6.00
2022-08-28T18:47:55.858Z,4.80
2022-08-28T18:50:36.028Z,6.10
2022-08-28T18:53:14.940Z,5.90
2022-08-28T18:55:56.947Z,5.20
2022-08-28T18:58:33.298Z,5.20
2022-08-28T19:01:20.311Z,4.70
2022-08-28T19:04:16.339Z,4.40
2022-08-28T19:06:48.611Z,4.40
2022-08-28T19:09:20.755Z,4.40
2022-08-28T19:11:56.578Z,4.20
2022-08-28T19:14:29.620Z,4.00
2022-08-28T19:17:04.960Z,4.20
2022-08-28T19:19:52.216Z,3.80
2022-08-28T19:23:03.057Z,3.70
2022-08-28T19:25:39.641Z,3.90
2022-08-28T19:28:18.323Z,4.00
2022-08-28T19:30:54.435Z,3.80
2022-08-28T19:33:27.187Z,3.70
2022-08-28T19:36:00.421Z,3.60
2022-08-28T19:38:39.747Z,3.40
2022-08-28T19:41:15.949Z,3.60
2022-08-28T19:44:10.487Z,4.00
2022-08-28T19:47:16.774Z,4.10
2022-08-28T19:49:46.235Z,4.10
2022-08-28T19:52:20.956Z,3.40
2022-08-28T19:55:37.678Z,3.60
2022-08-28T19:58:21.248Z,4.20
2022-08-28T20:00:53.446Z,4.30
2022-08-28T20:03:39.801Z,4.70
2022-08-28T20:06:15.316Z,3.60
2022-08-28T20:08:56.223Z,3.40
2022-08-28T20:11:44.646Z,4.20
2022-08-28T20:14:20.859Z,3.80
2022-08-28T20:16:55.937Z,4.40
2022-08-28T20:19:27.461Z,3.90
2022-08-28T20:22:08.361Z,3.80
2022-08-28T20:24:59.640Z,3.60
2022-08-28T20:27:36.961Z,4.00
2022-08-28T20:30:26.239Z,3.90
2022-08-28T20:33:02.390Z,3.80
2022-08-28T20:35:54.039Z,3.30
2022-08-28T20:38:48.839Z,3.40
2022-08-28T20:41:35.316Z,3.70
2022-08-28T20:44:16.509Z,3.90
2022-08-28T20:46:51.062Z,3.80
2022-08-28T20:49:24.713Z,3.40
2022-08-28T20:52:05.118Z,3.40
2022-08-28T20:54:54.039Z,3.90
2022-08-28T20:58:20.478Z,3.80
2022-08-28T21:01:02.641Z,4.10
2022-08-28T21:03:35.982Z,3.80
2022-08-28T21:06:19.736Z,4.50
2022-08-28T21:09:05.723Z,3.70
2022-08-28T21:12:06.139Z,3.40
2022-08-28T21:14:43.107Z,3.90
2022-08-28T21:17:30.823Z,3.90
2022-08-28T21:20:25.349Z,3.80
2022-08-28T21:23:01.135Z,3.80
2022-08-28T21:25:41.657Z,4.20
2022-08-28T21:28:13.921Z,4.30
2022-08-28T21:30:47.864Z,3.70
2022-08-28T21:33:30.243Z,4.00
2022-08-28T21:36:04.357Z,4.40
2022-08-28T21:38:39.695Z,4.00
2022-08-28T21:41:28.064Z,4.30
2022-08-28T21:44:09.595Z,3.60
2022-08-28T21:46:46.508Z,3.70
2022-08-28T21:49:23.992Z,3.90
2022-08-28T21:52:01.692Z,4.30
2022-08-28T21:54:39.833Z,4.00
2022-08-28T21:57:12.372Z,3.70
2022-08-28T22:00:01.637Z,4.00
2022-08-28T22:02:39.318Z,4.20
2022-08-28T22:05:23.696Z,4.60
2022-08-28T22:08:16.796Z,4.50
2022-08-28T22:10:54.444Z,3.90
2022-08-28T22:13:23.967Z,3.80
2022-08-28T22:15:54.169Z,4.00
2022-08-28T22:18:43.231Z,4.20
2022-08-28T22:21:35.573Z,4.90
2022-08-28T22:24:15.021Z,4.50
2022-08-28T22:30:17.122Z,4.40
2022-08-28T22:32:47.928Z,4.70
2022-08-28T22:35:23.286Z,4.70
2022-08-28T22:38:07.386Z,4.40
2022-08-28T22:40:40.470Z,4.30
2022-08-28T22:43:17.603Z,4.00
2022-08-28T22:45:59.359Z,4.60
2022-08-28T22:48:44.069Z,5.60
2022-08-28T22:51:34.340Z,4.70
2022-08-28T22:54:13.096Z,4.50
2022-08-28T22:56:52.087Z,5.20
2022-08-28T22:59:38.149Z,5.70
2022-08-28T23:02:20.790Z,5.30
2022-08-28T23:05:05.152Z,4.40
2022-08-28T23:07:50.635Z,4.40
2022-08-28T23:10:48.242Z,4.80
2022-08-28T23:13:35.341Z,5.00
2022-08-28T23:16:24.294Z,5.30
2022-08-28T23:19:08.912Z,5.40
2022-08-28T23:22:00.344Z,4.80
2022-08-28T23:24:49.202Z,4.70
2022-08-28T23:27:36.132Z,5.60
2022-08-28T23:30:34.505Z,5.60
2022-08-28T23:33:26.642Z,6.80
2022-08-28T23:36:05.887Z,5.60
2022-08-28T23:38:46.939Z,5.70
2022-08-28T23:41:35.699Z,6.20
2022-08-28T23:44:10.839Z,6.90
2022-08-28T23:46:49.779Z,7.00
2022-08-28T23:49:26.919Z,6.90
2022-08-28T23:52:12.200Z,6.00
2022-08-28T23:55:12.546Z,6.70
2022-08-28T23:57:52.321Z,8.10
